sensor_id;sensor_type;location;lat;lon;timestamp;temperature;humidity
814;DHT22;389;48.710;9.392;2022-08-16T00:01:56;17.10;99.90
814;DHT22;389;48.710;9.392;2022-08-16T00:04:21;17.10;99.90
814;DHT22;389;48.710;9.392;2022-08-16T00:06:47;17.20;99.90
814;DHT22;389;48.710;9.392;2022-08-16T00:09:13;17.20;99.90
814;DHT22;389;48.710;9.392;2022-08-16T00:11:40;17.30;99.90
814;DHT22;389;48.710;9.392;2022-08-16T00:14:09;17.30;99.90
814;DHT22;389;48.710;9.392;2022-08-16T00:16:35;17.30;99.90
814;DHT22;389;48.710;9.392;2022-08-16T00:19:01;17.40;99.90
814;DHT22;389;48.710;9.392;2022-08-16T00:21:28;17.40;99.90
814;DHT22;389;48.710;9.392;2022-08-16T00:23:54;17.40;99.90
814;DHT22;389;48.710;9.392;2022-08-16T00:26:19;17.50;99.90
814;DHT22;389;48.710;9.392;2022-08-16T00:28:45;17.40;99.90
814;DHT22;389;48.710;9.392;2022-08-16T00:31:11;17.30;99.90
814;DHT22;389;48.710;9.392;2022-08-16T00:33:36;17.30;99.90
814;DHT22;389;48.710;9.392;2022-08-16T00:36:02;17.20;99.90
814;DHT22;389;48.710;9.392;2022-08-16T00:38:28;17.20;99.90
814;DHT22;389;48.710;9.392;2022-08-16T00:40:54;17.20;99.90
814;DHT22;389;48.710;9.392;2022-08-16T00:43:33;17.10;99.90
814;DHT22;389;48.710;9.392;2022-08-16T00:48:37;17.00;99.90
814;DHT22;389;48.710;9.392;2022-08-16T00:51:03;17.00;99.90
814;DHT22;389;48.710;9.392;2022-08-16T00:53:30;16.90;99.90
814;DHT22;389;48.710;9.392;2022-08-16T00:56:10;16.90;99.90
814;DHT22;389;48.710;9.392;2022-08-16T00:58:40;17.00;99.90
814;DHT22;389;48.710;9.392;2022-08-16T01:01:08;16.80;99.90
814;DHT22;389;48.710;9.392;2022-08-16T01:03:35;16.90;99.90
814;DHT22;389;48.710;9.392;2022-08-16T01:06:02;16.80;99.90
814;DHT22;389;48.710;9.392;2022-08-16T01:08:28;16.80;99.90
814;DHT22;389;48.710;9.392;2022-08-16T01:10:54;16.80;99.90
814;DHT22;389;48.710;9.392;2022-08-16T01:13:27;16.80;99.90
814;DHT22;389;48.710;9.392;2022-08-16T01:18:24;16.70;99.90
814;DHT22;389;48.710;9.392;2022-08-16T01:21:25;16.70;99.90
814;DHT22;389;48.710;9.392;2022-08-16T01:26:18;16.70;99.90
814;DHT22;389;48.710;9.392;2022-08-16T01:28:45;16.70;99.90
814;DHT22;389;48.710;9.392;2022-08-16T01:31:12;16.60;99.90
814;DHT22;389;48.710;9.392;2022-08-16T01:33:39;16.60;99.90
814;DHT22;389;48.710;9.392;2022-08-16T01:36:07;16.60;99.90
814;DHT22;389;48.710;9.392;2022-08-16T01:38:36;16.70;99.90
814;DHT22;389;48.710;9.392;2022-08-16T01:41:26;16.70;99.90
814;DHT22;389;48.710;9.392;2022-08-16T01:43:53;16.60;99.90
814;DHT22;389;48.710;9.392;2022-08-16T01:46:28;16.70;99.90
814;DHT22;389;48.710;9.392;2022-08-16T01:51:35;16.60;99.90
814;DHT22;389;48.710;9.392;2022-08-16T01:54:01;16.60;99.90
814;DHT22;389;48.710;9.392;2022-08-16T01:56:28;16.70;99.90
814;DHT22;389;48.710;9.392;2022-08-16T01:58:56;16.70;99.90
814;DHT22;389;48.710;9.392;2022-08-16T02:01:22;16.60;99.90
814;DHT22;389;48.710;9.392;2022-08-16T02:03:48;16.60;99.90
814;DHT22;389;48.710;9.392;2022-08-16T02:06:13;16.60;99.90
814;DHT22;389;48.710;9.392;2022-08-16T02:08:39;16.60;99.90
814;DHT22;389;48.710;9.392;2022-08-16T02:11:06;16.60;99.90
814;DHT22;389;48.710;9.392;2022-08-16T02:13:36;16.60;99.90
814;DHT22;389;48.710;9.392;2022-08-16T02:16:05;16.60;99.90
814;DHT22;389;48.710;9.392;2022-08-16T02:18:31;16.60;99.90
814;DHT22;389;48.710;9.392;2022-08-16T02:20:56;16.60;99.90
814;DHT22;389;48.710;9.392;2022-08-16T02:23:22;16.60;99.90
814;DHT22;389;48.710;9.392;2022-08-16T02:25:48;16.60;99.90
814;DHT22;389;48.710;9.392;2022-08-16T02:28:14;16.70;99.90
814;DHT22;389;48.710;9.392;2022-08-16T02:30:40;16.60;99.90
814;DHT22;389;48.710;9.392;2022-08-16T02:33:06;16.60;99.90
814;DHT22;389;48.710;9.392;2022-08-16T02:35:33;16.60;99.90
814;DHT22;389;48.710;9.392;2022-08-16T02:37:59;16.70;99.90
814;DHT22;389;48.710;9.392;2022-08-16T02:40:25;16.70;99.90
814;DHT22;389;48.710;9.392;2022-08-16T02:42:52;16.70;99.90
814;DHT22;389;48.710;9.392;2022-08-16T02:45:20;16.70;99.90
814;DHT22;389;48.710;9.392;2022-08-16T02:47:46;16.80;99.90
814;DHT22;389;48.710;9.392;2022-08-16T02:50:11;16.90;99.90
814;DHT22;389;48.710;9.392;2022-08-16T02:52:37;16.80;99.90
814;DHT22;389;48.710;9.392;2022-08-16T02:55:03;16.80;99.90
814;DHT22;389;48.710;9.392;2022-08-16T02:57:29;16.90;99.90
814;DHT22;389;48.710;9.392;2022-08-16T02:59:55;16.80;99.90
814;DHT22;389;48.710;9.392;2022-08-16T03:02:21;17.00;99.90
814;DHT22;389;48.710;9.392;2022-08-16T03:04:47;16.90;99.90
814;DHT22;389;48.710;9.392;2022-08-16T03:07:12;16.90;99.90
814;DHT22;389;48.710;9.392;2022-08-16T03:09:39;16.90;99.90
814;DHT22;389;48.710;9.392;2022-08-16T03:12:05;16.90;99.90
814;DHT22;389;48.710;9.392;2022-08-16T03:14:32;16.90;99.90
814;DHT22;389;48.710;9.392;2022-08-16T03:16:58;16.90;99.90
814;DHT22;389;48.710;9.392;2022-08-16T03:19:24;16.80;99.90
814;DHT22;389;48.710;9.392;2022-08-16T03:21:50;16.80;99.90
814;DHT22;389;48.710;9.392;2022-08-16T03:24:16;16.80;99.90
814;DHT22;389;48.710;9.392;2022-08-16T03:26:41;16.70;99.90
814;DHT22;389;48.710;9.392;2022-08-16T03:29:07;16.70;99.90
814;DHT22;389;48.710;9.392;2022-08-16T03:31:33;16.60;99.90
814;DHT22;389;48.710;9.392;2022-08-16T03:33:58;16.60;99.90
814;DHT22;389;48.710;9.392;2022-08-16T03:36:24;16.50;99.90
814;DHT22;389;48.710;9.392;2022-08-16T03:38:50;16.50;99.90
814;DHT22;389;48.710;9.392;2022-08-16T03:41:16;16.50;99.90
814;DHT22;389;48.710;9.392;2022-08-16T03:43:41;16.40;99.90
814;DHT22;389;48.710;9.392;2022-08-16T03:46:07;16.40;99.90
814;DHT22;389;48.710;9.392;2022-08-16T03:48:36;16.40;99.90
814;DHT22;389;48.710;9.392;2022-08-16T03:51:04;16.30;99.90
814;DHT22;389;48.710;9.392;2022-08-16T03:53:30;16.30;99.90
814;DHT22;389;48.710;9.392;2022-08-16T03:55:55;16.30;99.90
814;DHT22;389;48.710;9.392;2022-08-16T03:58:21;16.30;99.90
814;DHT22;389;48.710;9.392;2022-08-16T04:00:47;16.30;99.90
814;DHT22;389;48.710;9.392;2022-08-16T04:03:14;16.30;99.90
814;DHT22;389;48.710;9.392;2022-08-16T04:05:43;16.30;99.90
814;DHT22;389;48.710;9.392;2022-08-16T04:08:11;16.30;99.90
814;DHT22;389;48.710;9.392;2022-08-16T04:10:38;16.30;99.90
814;DHT22;389;48.710;9.392;2022-08-16T04:13:03;16.30;99.90
814;DHT22;389;48.710;9.392;2022-08-16T04:15:29;16.40;99.90
814;DHT22;389;48.710;9.392;2022-08-16T04:17:56;16.20;99.90
814;DHT22;389;48.710;9.392;2022-08-16T04:20:22;16.20;99.90
814;DHT22;389;48.710;9.392;2022-08-16T04:22:48;16.20;99.90
814;DHT22;389;48.710;9.392;2022-08-16T04:25:14;16.10;99.90
814;DHT22;389;48.710;9.392;2022-08-16T04:27:40;16.10;99.90
814;DHT22;389;48.710;9.392;2022-08-16T04:30:10;16.20;99.90
814;DHT22;389;48.710;9.392;2022-08-16T04:32:37;16.10;99.90
814;DHT22;389;48.710;9.392;2022-08-16T04:35:05;16.10;99.90
814;DHT22;389;48.710;9.392;2022-08-16T04:37:30;16.10;99.90
814;DHT22;389;48.710;9.392;2022-08-16T04:39:56;16.10;99.90
814;DHT22;389;48.710;9.392;2022-08-16T04:42:22;16.10;99.90
814;DHT22;389;48.710;9.392;2022-08-16T04:44:47;16.10;99.90
814;DHT22;389;48.710;9.392;2022-08-16T04:47:14;16.20;99.90
814;DHT22;389;48.710;9.392;2022-08-16T04:49:39;16.20;99.90
814;DHT22;389;48.710;9.392;2022-08-16T04:52:05;16.30;99.90
814;DHT22;389;48.710;9.392;2022-08-16T04:54:31;16.30;99.90
814;DHT22;389;48.710;9.392;2022-08-16T04:56:56;16.40;99.90
814;DHT22;389;48.710;9.392;2022-08-16T04:59:22;16.50;99.90
814;DHT22;389;48.710;9.392;2022-08-16T05:01:48;16.70;99.90
814;DHT22;389;48.710;9.392;2022-08-16T05:04:13;16.80;99.90
814;DHT22;389;48.710;9.392;2022-08-16T05:06:39;16.90;99.90
814;DHT22;389;48.710;9.392;2022-08-16T05:09:05;17.10;99.90
814;DHT22;389;48.710;9.392;2022-08-16T05:11:31;17.30;99.90
814;DHT22;389;48.710;9.392;2022-08-16T05:13:57;17.30;99.90
814;DHT22;389;48.710;9.392;2022-08-16T05:16:29;17.50;99.90
814;DHT22;389;48.710;9.392;2022-08-16T05:18:57;17.60;99.90
814;DHT22;389;48.710;9.392;2022-08-16T05:21:23;17.80;99.90
814;DHT22;389;48.710;9.392;2022-08-16T05:23:50;18.10;99.90
814;DHT22;389;48.710;9.392;2022-08-16T05:26:17;18.50;99.90
814;DHT22;389;48.710;9.392;2022-08-16T05:28:42;18.60;99.90
814;DHT22;389;48.710;9.392;2022-08-16T05:31:08;18.70;99.90
814;DHT22;389;48.710;9.392;2022-08-16T05:33:34;18.70;99.90
814;DHT22;389;48.710;9.392;2022-08-16T05:35:59;18.70;99.90
814;DHT22;389;48.710;9.392;2022-08-16T05:38:25;18.70;99.90
814;DHT22;389;48.710;9.392;2022-08-16T05:40:54;18.80;99.90
814;DHT22;389;48.710;9.392;2022-08-16T05:43:20;18.80;99.90
814;DHT22;389;48.710;9.392;2022-08-16T05:45:46;18.80;99.90
814;DHT22;389;48.710;9.392;2022-08-16T05:48:12;18.90;99.90
814;DHT22;389;48.710;9.392;2022-08-16T05:50:37;18.90;99.90
814;DHT22;389;48.710;9.392;2022-08-16T05:53:04;19.00;99.90
814;DHT22;389;48.710;9.392;2022-08-16T05:55:30;19.20;99.90
814;DHT22;389;48.710;9.392;2022-08-16T05:57:55;19.40;99.90
814;DHT22;389;48.710;9.392;2022-08-16T06:00:21;19.70;99.90
814;DHT22;389;48.710;9.392;2022-08-16T06:02:47;20.10;99.90
814;DHT22;389;48.710;9.392;2022-08-16T06:05:13;20.40;99.90
814;DHT22;389;48.710;9.392;2022-08-16T06:07:39;20.80;99.90
814;DHT22;389;48.710;9.392;2022-08-16T06:10:05;21.20;99.90
814;DHT22;389;48.710;9.392;2022-08-16T06:12:31;21.60;99.10
814;DHT22;389;48.710;9.392;2022-08-16T06:14:59;21.80;97.90
814;DHT22;389;48.710;9.392;2022-08-16T06:17:27;22.10;97.70
814;DHT22;389;48.710;9.392;2022-08-16T06:19:53;22.30;96.70
814;DHT22;389;48.710;9.392;2022-08-16T06:22:18;22.60;96.30
814;DHT22;389;48.710;9.392;2022-08-16T06:24:44;22.80;95.30
814;DHT22;389;48.710;9.392;2022-08-16T06:27:11;23.00;95.10
814;DHT22;389;48.710;9.392;2022-08-16T06:29:36;23.20;94.90
814;DHT22;389;48.710;9.392;2022-08-16T06:32:03;23.60;94.70
814;DHT22;389;48.710;9.392;2022-08-16T06:34:29;23.80;94.60
814;DHT22;389;48.710;9.392;2022-08-16T06:36:54;23.90;93.60
814;DHT22;389;48.710;9.392;2022-08-16T06:39:20;23.90;93.20
814;DHT22;389;48.710;9.392;2022-08-16T06:41:46;23.90;92.80
814;DHT22;389;48.710;9.392;2022-08-16T06:44:12;23.80;92.80
814;DHT22;389;48.710;9.392;2022-08-16T06:46:38;23.70;93.00
814;DHT22;389;48.710;9.392;2022-08-16T06:49:07;23.40;92.80
814;DHT22;389;48.710;9.392;2022-08-16T06:51:33;23.30;93.50
814;DHT22;389;48.710;9.392;2022-08-16T06:53:59;23.30;93.50
814;DHT22;389;48.710;9.392;2022-08-16T06:56:26;23.10;93.70
814;DHT22;389;48.710;9.392;2022-08-16T06:58:52;23.00;93.70
814;DHT22;389;48.710;9.392;2022-08-16T07:01:19;23.00;93.70
814;DHT22;389;48.710;9.392;2022-08-16T07:03:45;23.00;93.20
814;DHT22;389;48.710;9.392;2022-08-16T07:06:10;22.90;93.30
814;DHT22;389;48.710;9.392;2022-08-16T07:08:37;22.80;93.80
814;DHT22;389;48.710;9.392;2022-08-16T07:11:03;22.80;93.80
814;DHT22;389;48.710;9.392;2022-08-16T07:13:29;22.70;93.90
814;DHT22;389;48.710;9.392;2022-08-16T07:15:56;22.70;94.20
814;DHT22;389;48.710;9.392;2022-08-16T07:18:24;22.70;94.00
814;DHT22;389;48.710;9.392;2022-08-16T07:20:50;22.70;94.40
814;DHT22;389;48.710;9.392;2022-08-16T07:23:18;22.60;93.90
814;DHT22;389;48.710;9.392;2022-08-16T07:25:44;22.60;94.30
814;DHT22;389;48.710;9.392;2022-08-16T07:28:12;22.60;95.00
814;DHT22;389;48.710;9.392;2022-08-16T07:30:39;22.60;94.50
814;DHT22;389;48.710;9.392;2022-08-16T07:33:05;22.60;94.30
814;DHT22;389;48.710;9.392;2022-08-16T07:35:31;22.70;94.20
814;DHT22;389;48.710;9.392;2022-08-16T07:37:58;22.80;93.90
814;DHT22;389;48.710;9.392;2022-08-16T07:40:24;22.80;94.50
814;DHT22;389;48.710;9.392;2022-08-16T07:42:50;22.90;94.40
814;DHT22;389;48.710;9.392;2022-08-16T07:45:16;23.00;94.40
814;DHT22;389;48.710;9.392;2022-08-16T07:47:43;22.90;93.90
814;DHT22;389;48.710;9.392;2022-08-16T07:50:10;23.00;93.70
814;DHT22;389;48.710;9.392;2022-08-16T07:52:36;23.00;93.80
814;DHT22;389;48.710;9.392;2022-08-16T07:55:03;23.00;93.70
814;DHT22;389;48.710;9.392;2022-08-16T07:57:28;23.10;93.80
814;DHT22;389;48.710;9.392;2022-08-16T07:59:54;23.10;93.70
814;DHT22;389;48.710;9.392;2022-08-16T08:02:20;23.20;94.10
814;DHT22;389;48.710;9.392;2022-08-16T08:04:46;23.20;93.40
814;DHT22;389;48.710;9.392;2022-08-16T08:07:12;23.30;93.70
814;DHT22;389;48.710;9.392;2022-08-16T08:09:38;23.30;93.70
814;DHT22;389;48.710;9.392;2022-08-16T08:12:04;23.40;93.60
814;DHT22;389;48.710;9.392;2022-08-16T08:14:30;23.40;93.40
814;DHT22;389;48.710;9.392;2022-08-16T08:16:57;23.50;93.80
814;DHT22;389;48.710;9.392;2022-08-16T08:19:24;23.60;93.50
814;DHT22;389;48.710;9.392;2022-08-16T08:21:50;23.70;93.50
814;DHT22;389;48.710;9.392;2022-08-16T08:24:19;23.80;93.10
814;DHT22;389;48.710;9.392;2022-08-16T08:26:45;23.90;92.90
814;DHT22;389;48.710;9.392;2022-08-16T08:29:11;24.00;92.40
814;DHT22;389;48.710;9.392;2022-08-16T08:31:36;24.10;92.10
814;DHT22;389;48.710;9.392;2022-08-16T08:34:05;24.20;91.80
814;DHT22;389;48.710;9.392;2022-08-16T08:36:33;24.30;92.30
814;DHT22;389;48.710;9.392;2022-08-16T08:39:02;24.40;92.50
814;DHT22;389;48.710;9.392;2022-08-16T08:41:29;24.50;91.00
814;DHT22;389;48.710;9.392;2022-08-16T08:43:56;24.60;91.70
814;DHT22;389;48.710;9.392;2022-08-16T08:46:22;24.60;90.80
814;DHT22;389;48.710;9.392;2022-08-16T08:48:50;24.80;91.10
814;DHT22;389;48.710;9.392;2022-08-16T08:51:16;24.90;91.20
814;DHT22;389;48.710;9.392;2022-08-16T08:53:44;25.00;91.20
814;DHT22;389;48.710;9.392;2022-08-16T08:56:13;25.10;90.90
814;DHT22;389;48.710;9.392;2022-08-16T08:58:40;25.10;90.30
814;DHT22;389;48.710;9.392;2022-08-16T09:01:07;25.20;89.60
814;DHT22;389;48.710;9.392;2022-08-16T09:03:34;25.30;90.10
814;DHT22;389;48.710;9.392;2022-08-16T09:06:01;25.30;89.70
814;DHT22;389;48.710;9.392;2022-08-16T09:08:27;25.40;90.40
814;DHT22;389;48.710;9.392;2022-08-16T09:10:54;25.50;90.00
814;DHT22;389;48.710;9.392;2022-08-16T09:13:21;25.60;86.60
814;DHT22;389;48.710;9.392;2022-08-16T09:15:47;25.70;86.30
814;DHT22;389;48.710;9.392;2022-08-16T09:18:14;25.80;86.60
814;DHT22;389;48.710;9.392;2022-08-16T09:20:40;25.90;87.00
814;DHT22;389;48.710;9.392;2022-08-16T09:23:06;26.10;86.30
814;DHT22;389;48.710;9.392;2022-08-16T09:25:32;26.30;85.10
814;DHT22;389;48.710;9.392;2022-08-16T09:27:59;26.50;83.80
814;DHT22;389;48.710;9.392;2022-08-16T09:30:25;26.70;81.30
814;DHT22;389;48.710;9.392;2022-08-16T09:32:51;26.90;80.70
814;DHT22;389;48.710;9.392;2022-08-16T09:35:20;27.00;79.70
814;DHT22;389;48.710;9.392;2022-08-16T09:37:46;27.10;78.30
814;DHT22;389;48.710;9.392;2022-08-16T09:40:11;27.20;77.90
814;DHT22;389;48.710;9.392;2022-08-16T09:42:38;27.30;77.00
814;DHT22;389;48.710;9.392;2022-08-16T09:45:06;27.40;75.00
814;DHT22;389;48.710;9.392;2022-08-16T09:47:36;27.40;75.70
814;DHT22;389;48.710;9.392;2022-08-16T09:50:12;27.50;75.60
814;DHT22;389;48.710;9.392;2022-08-16T09:52:38;27.50;74.80
814;DHT22;389;48.710;9.392;2022-08-16T09:55:05;27.60;75.10
814;DHT22;389;48.710;9.392;2022-08-16T09:57:32;27.60;74.60
814;DHT22;389;48.710;9.392;2022-08-16T09:59:58;27.70;74.30
814;DHT22;389;48.710;9.392;2022-08-16T10:02:26;27.90;75.50
814;DHT22;389;48.710;9.392;2022-08-16T10:04:53;28.00;72.30
814;DHT22;389;48.710;9.392;2022-08-16T10:07:19;28.20;70.40
814;DHT22;389;48.710;9.392;2022-08-16T10:09:45;28.40;71.30
814;DHT22;389;48.710;9.392;2022-08-16T10:12:11;28.60;71.40
814;DHT22;389;48.710;9.392;2022-08-16T10:14:55;28.90;69.80
814;DHT22;389;48.710;9.392;2022-08-16T10:17:21;29.30;69.50
814;DHT22;389;48.710;9.392;2022-08-16T10:19:46;29.60;68.10
814;DHT22;389;48.710;9.392;2022-08-16T10:22:13;29.80;68.60
814;DHT22;389;48.710;9.392;2022-08-16T10:24:40;30.10;66.60
814;DHT22;389;48.710;9.392;2022-08-16T10:27:06;30.20;63.60
814;DHT22;389;48.710;9.392;2022-08-16T10:29:31;30.40;63.50
814;DHT22;389;48.710;9.392;2022-08-16T10:31:57;30.50;61.80
814;DHT22;389;48.710;9.392;2022-08-16T10:34:23;30.40;60.80
814;DHT22;389;48.710;9.392;2022-08-16T10:36:48;30.30;60.60
814;DHT22;389;48.710;9.392;2022-08-16T10:39:14;30.30;61.10
814;DHT22;389;48.710;9.392;2022-08-16T10:41:40;30.30;60.00
814;DHT22;389;48.710;9.392;2022-08-16T10:44:06;30.30;59.10
814;DHT22;389;48.710;9.392;2022-08-16T10:46:31;30.40;59.30
814;DHT22;389;48.710;9.392;2022-08-16T10:49:00;30.40;59.70
814;DHT22;389;48.710;9.392;2022-08-16T10:51:26;30.50;59.40
814;DHT22;389;48.710;9.392;2022-08-16T10:53:51;30.60;59.60
814;DHT22;389;48.710;9.392;2022-08-16T10:56:17;30.70;59.10
814;DHT22;389;48.710;9.392;2022-08-16T10:58:43;30.70;58.80
814;DHT22;389;48.710;9.392;2022-08-16T11:01:09;30.80;57.80
814;DHT22;389;48.710;9.392;2022-08-16T11:03:36;30.80;57.70
814;DHT22;389;48.710;9.392;2022-08-16T11:06:06;30.80;58.00
814;DHT22;389;48.710;9.392;2022-08-16T11:08:36;30.70;57.20
814;DHT22;389;48.710;9.392;2022-08-16T11:11:05;30.60;57.50
814;DHT22;389;48.710;9.392;2022-08-16T11:13:30;30.60;58.50
814;DHT22;389;48.710;9.392;2022-08-16T11:15:56;30.60;58.50
814;DHT22;389;48.710;9.392;2022-08-16T11:18:25;30.60;57.90
814;DHT22;389;48.710;9.392;2022-08-16T11:20:53;30.50;58.00
814;DHT22;389;48.710;9.392;2022-08-16T11:23:18;30.50;57.60
814;DHT22;389;48.710;9.392;2022-08-16T11:25:44;30.40;57.40
814;DHT22;389;48.710;9.392;2022-08-16T11:28:10;30.30;57.30
814;DHT22;389;48.710;9.392;2022-08-16T11:30:38;30.20;57.70
814;DHT22;389;48.710;9.392;2022-08-16T11:33:05;30.10;58.90
814;DHT22;389;48.710;9.392;2022-08-16T11:35:32;29.90;58.70
814;DHT22;389;48.710;9.392;2022-08-16T11:38:01;29.80;59.50
814;DHT22;389;48.710;9.392;2022-08-16T11:40:29;29.60;58.90
814;DHT22;389;48.710;9.392;2022-08-16T11:42:56;29.60;60.10
814;DHT22;389;48.710;9.392;2022-08-16T11:45:22;29.50;57.80
814;DHT22;389;48.710;9.392;2022-08-16T11:47:48;29.40;57.80
814;DHT22;389;48.710;9.392;2022-08-16T11:50:15;29.30;58.40
814;DHT22;389;48.710;9.392;2022-08-16T11:52:41;29.30;59.30
814;DHT22;389;48.710;9.392;2022-08-16T11:55:09;29.30;58.70
814;DHT22;389;48.710;9.392;2022-08-16T11:57:35;29.30;58.10
814;DHT22;389;48.710;9.392;2022-08-16T12:00:04;29.30;59.50
814;DHT22;389;48.710;9.392;2022-08-16T12:02:29;29.30;59.20
814;DHT22;389;48.710;9.392;2022-08-16T12:04:55;29.20;58.70
814;DHT22;389;48.710;9.392;2022-08-16T12:07:22;29.30;58.60
814;DHT22;389;48.710;9.392;2022-08-16T12:09:47;29.40;58.30
814;DHT22;389;48.710;9.392;2022-08-16T12:12:13;29.30;56.90
814;DHT22;389;48.710;9.392;2022-08-16T12:14:38;29.40;57.40
814;DHT22;389;48.710;9.392;2022-08-16T12:17:05;29.40;57.70
814;DHT22;389;48.710;9.392;2022-08-16T12:19:31;29.50;58.50
814;DHT22;389;48.710;9.392;2022-08-16T12:21:57;29.50;58.20
814;DHT22;389;48.710;9.392;2022-08-16T12:24:24;29.50;58.10
814;DHT22;389;48.710;9.392;2022-08-16T12:26:51;29.60;57.50
814;DHT22;389;48.710;9.392;2022-08-16T12:29:17;29.70;58.20
814;DHT22;389;48.710;9.392;2022-08-16T12:31:43;29.70;57.50
814;DHT22;389;48.710;9.392;2022-08-16T12:34:09;29.80;57.00
814;DHT22;389;48.710;9.392;2022-08-16T12:36:34;29.80;56.60
814;DHT22;389;48.710;9.392;2022-08-16T12:39:02;29.80;56.80
814;DHT22;389;48.710;9.392;2022-08-16T12:41:28;29.80;56.70
814;DHT22;389;48.710;9.392;2022-08-16T12:44:15;29.80;56.90
814;DHT22;389;48.710;9.392;2022-08-16T12:46:41;29.80;57.50
814;DHT22;389;48.710;9.392;2022-08-16T12:49:07;29.80;56.70
814;DHT22;389;48.710;9.392;2022-08-16T12:51:38;29.80;55.60
814;DHT22;389;48.710;9.392;2022-08-16T12:54:06;29.80;55.90
814;DHT22;389;48.710;9.392;2022-08-16T12:56:36;29.80;56.80
814;DHT22;389;48.710;9.392;2022-08-16T12:59:08;29.80;57.50
814;DHT22;389;48.710;9.392;2022-08-16T13:01:35;29.80;57.00
814;DHT22;389;48.710;9.392;2022-08-16T13:04:03;29.80;56.20
814;DHT22;389;48.710;9.392;2022-08-16T13:06:32;29.80;57.00
814;DHT22;389;48.710;9.392;2022-08-16T13:08:58;29.80;55.90
814;DHT22;389;48.710;9.392;2022-08-16T13:11:38;29.80;55.90
814;DHT22;389;48.710;9.392;2022-08-16T13:14:10;29.70;55.90
814;DHT22;389;48.710;9.392;2022-08-16T13:16:36;29.70;56.10
814;DHT22;389;48.710;9.392;2022-08-16T13:19:02;29.70;56.10
814;DHT22;389;48.710;9.392;2022-08-16T13:21:27;29.70;56.20
814;DHT22;389;48.710;9.392;2022-08-16T13:23:53;29.70;56.00
814;DHT22;389;48.710;9.392;2022-08-16T13:26:18;29.70;55.30
814;DHT22;389;48.710;9.392;2022-08-16T13:28:44;29.80;56.10
814;DHT22;389;48.710;9.392;2022-08-16T13:31:10;29.80;55.30
814;DHT22;389;48.710;9.392;2022-08-16T13:33:38;29.80;56.00
814;DHT22;389;48.710;9.392;2022-08-16T13:36:10;29.80;55.90
814;DHT22;389;48.710;9.392;2022-08-16T13:39:05;29.90;56.20
814;DHT22;389;48.710;9.392;2022-08-16T13:41:34;29.90;55.70
814;DHT22;389;48.710;9.392;2022-08-16T13:44:00;30.00;55.30
814;DHT22;389;48.710;9.392;2022-08-16T13:46:32;30.00;55.30
814;DHT22;389;48.710;9.392;2022-08-16T13:49:02;30.10;54.80
814;DHT22;389;48.710;9.392;2022-08-16T13:51:28;30.10;55.20
814;DHT22;389;48.710;9.392;2022-08-16T13:53:57;30.10;54.60
814;DHT22;389;48.710;9.392;2022-08-16T13:56:23;30.00;54.40
814;DHT22;389;48.710;9.392;2022-08-16T13:58:51;30.10;54.80
814;DHT22;389;48.710;9.392;2022-08-16T14:01:17;30.00;54.70
814;DHT22;389;48.710;9.392;2022-08-16T14:03:44;30.00;54.70
814;DHT22;389;48.710;9.392;2022-08-16T14:06:11;30.10;54.90
814;DHT22;389;48.710;9.392;2022-08-16T14:08:38;30.10;55.00
814;DHT22;389;48.710;9.392;2022-08-16T14:11:04;30.10;54.10
814;DHT22;389;48.710;9.392;2022-08-16T14:13:31;30.20;54.20
814;DHT22;389;48.710;9.392;2022-08-16T14:15:57;30.20;54.30
814;DHT22;389;48.710;9.392;2022-08-16T14:18:23;30.20;54.50
814;DHT22;389;48.710;9.392;2022-08-16T14:20:49;30.20;53.80
814;DHT22;389;48.710;9.392;2022-08-16T14:23:15;30.20;54.40
814;DHT22;389;48.710;9.392;2022-08-16T14:25:41;30.30;54.30
814;DHT22;389;48.710;9.392;2022-08-16T14:28:10;30.30;53.90
814;DHT22;389;48.710;9.392;2022-08-16T14:30:36;30.30;53.70
814;DHT22;389;48.710;9.392;2022-08-16T14:33:03;30.30;53.50
814;DHT22;389;48.710;9.392;2022-08-16T14:35:31;30.30;52.80
814;DHT22;389;48.710;9.392;2022-08-16T14:37:58;30.40;52.90
814;DHT22;389;48.710;9.392;2022-08-16T14:40:31;30.40;53.40
814;DHT22;389;48.710;9.392;2022-08-16T14:42:57;30.40;53.00
814;DHT22;389;48.710;9.392;2022-08-16T14:45:25;30.50;53.30
814;DHT22;389;48.710;9.392;2022-08-16T14:47:52;30.50;52.80
814;DHT22;389;48.710;9.392;2022-08-16T14:50:21;30.50;53.50
814;DHT22;389;48.710;9.392;2022-08-16T14:52:54;30.50;52.70
814;DHT22;389;48.710;9.392;2022-08-16T14:55:21;30.50;52.50
814;DHT22;389;48.710;9.392;2022-08-16T14:57:46;30.40;52.50
814;DHT22;389;48.710;9.392;2022-08-16T15:00:12;30.40;53.30
814;DHT22;389;48.710;9.392;2022-08-16T15:02:39;30.50;53.60
814;DHT22;389;48.710;9.392;2022-08-16T15:05:06;30.50;53.20
814;DHT22;389;48.710;9.392;2022-08-16T15:07:32;30.50;52.50
814;DHT22;389;48.710;9.392;2022-08-16T15:09:58;30.50;52.90
814;DHT22;389;48.710;9.392;2022-08-16T15:12:25;30.50;53.40
814;DHT22;389;48.710;9.392;2022-08-16T15:14:53;30.60;52.80
814;DHT22;389;48.710;9.392;2022-08-16T15:17:20;30.60;52.40
814;DHT22;389;48.710;9.392;2022-08-16T15:19:48;30.70;52.20
814;DHT22;389;48.710;9.392;2022-08-16T15:22:24;30.70;52.10
814;DHT22;389;48.710;9.392;2022-08-16T15:24:51;30.70;52.70
814;DHT22;389;48.710;9.392;2022-08-16T15:27:29;30.80;52.40
814;DHT22;389;48.710;9.392;2022-08-16T15:29:56;30.80;52.70
814;DHT22;389;48.710;9.392;2022-08-16T15:32:22;30.80;52.00
814;DHT22;389;48.710;9.392;2022-08-16T15:34:51;30.80;51.90
814;DHT22;389;48.710;9.392;2022-08-16T15:37:17;30.80;51.60
814;DHT22;389;48.710;9.392;2022-08-16T15:39:43;30.70;51.70
814;DHT22;389;48.710;9.392;2022-08-16T15:42:11;30.70;51.80
814;DHT22;389;48.710;9.392;2022-08-16T15:44:38;30.70;51.80
814;DHT22;389;48.710;9.392;2022-08-16T15:47:10;30.80;52.10
814;DHT22;389;48.710;9.392;2022-08-16T15:49:37;30.70;51.40
814;DHT22;389;48.710;9.392;2022-08-16T15:52:10;30.70;53.30
814;DHT22;389;48.710;9.392;2022-08-16T15:54:38;30.60;51.80
814;DHT22;389;48.710;9.392;2022-08-16T15:57:03;30.60;51.80
814;DHT22;389;48.710;9.392;2022-08-16T15:59:29;30.60;51.70
814;DHT22;389;48.710;9.392;2022-08-16T16:01:55;30.60;51.70
814;DHT22;389;48.710;9.392;2022-08-16T16:04:22;30.60;51.90
814;DHT22;389;48.710;9.392;2022-08-16T16:06:49;30.60;52.80
814;DHT22;389;48.710;9.392;2022-08-16T16:09:17;30.60;51.50
814;DHT22;389;48.710;9.392;2022-08-16T16:11:44;30.70;52.80
814;DHT22;389;48.710;9.392;2022-08-16T16:14:11;30.70;51.30
814;DHT22;389;48.710;9.392;2022-08-16T16:16:38;30.70;51.40
814;DHT22;389;48.710;9.392;2022-08-16T16:19:04;30.70;52.60
814;DHT22;389;48.710;9.392;2022-08-16T16:21:29;30.70;52.60
814;DHT22;389;48.710;9.392;2022-08-16T16:23:55;30.70;52.50
814;DHT22;389;48.710;9.392;2022-08-16T16:26:21;30.70;51.00
814;DHT22;389;48.710;9.392;2022-08-16T16:28:46;30.70;51.50
814;DHT22;389;48.710;9.392;2022-08-16T16:31:15;30.70;52.40
814;DHT22;389;48.710;9.392;2022-08-16T16:33:42;30.60;52.20
814;DHT22;389;48.710;9.392;2022-08-16T16:36:10;30.60;52.80
814;DHT22;389;48.710;9.392;2022-08-16T16:38:38;30.60;53.10
814;DHT22;389;48.710;9.392;2022-08-16T16:41:07;30.50;52.50
814;DHT22;389;48.710;9.392;2022-08-16T16:43:41;30.50;52.50